Time;durP1;ratioP1;P1;durP2;ratioP2;P2;SDS_P1;SDS_P2;PMS_P1;PMS_P2;Temp;Humidity;BMP_temperature;BMP_pressure;BME280_temperature;BME280_humidity;BME280_pressure;Samples;Min_cycle;Max_cycle;Signal;HPM_P1;HPM_P2
2023/07/05 00:00:32;;;;;;;10.60;3.88;;;;;;;;;;5066878;28;20492;-76
2023/07/05 00:02:58;;;;;;;6.07;3.58;;;15.10;99.90;;;;;;5049098;28;20098;-76
2023/07/05 00:05:24;;;;;;;8.93;4.88;;;;;;;;;;5062798;28;20127;-76
2023/07/05 00:07:50;;;;;;;7.68;4.28;;;;;;;;;;5064783;28;20044;-77
2023/07/05 00:10:17;;;;;;;5.75;3.85;;;;;;;;;;5049974;28;20045;-76
2023/07/05 00:12:42;;;;;;;9.13;3.63;;;14.90;99.90;;;;;;5065032;28;20422;-76
2023/07/05 00:15:08;;;;;;;9.35;4.47;;;;;;;;;;5066537;28;20048;-77
2023/07/05 00:17:35;;;;;;;9.80;4.20;;;15.00;99.90;;;;;;5062250;28;20071;-75
2023/07/05 00:20:04;;;;;;;8.32;3.75;;;14.90;99.90;;;;;;5066559;28;20040;-76
2023/07/05 00:22:30;;;;;;;9.38;3.85;;;15.00;99.90;;;;;;5065405;28;20044;-76
2023/07/05 00:24:56;;;;;;;11.65;4.10;;;15.00;99.90;;;;;;5050088;28;20065;-76
2023/07/05 00:27:24;;;;;;;11.50;4.38;;;15.00;99.90;;;;;;5058346;28;20402;-76
2023/07/05 00:29:53;;;;;;;12.27;4.10;;;15.00;99.90;;;;;;5062827;28;20033;-77
2023/07/05 00:32:19;;;;;;;16.67;4.85;;;;;;;;;;5061370;28;20570;-79
2023/07/05 00:34:45;;;;;;;11.63;5.03;;;;;;;;;;5060650;28;20070;-76
2023/07/05 00:37:11;;;;;;;11.00;4.95;;;;;;;;;;5065769;28;20119;-77
2023/07/05 00:39:37;;;;;;;12.88;4.90;;;;;;;;;;5062632;28;20040;-76
2023/07/05 00:42:04;;;;;;;11.70;5.07;;;14.70;99.90;;;;;;5054438;28;20086;-77
2023/07/05 00:44:30;;;;;;;12.43;4.45;;;;;;;;;;5053282;28;20062;-77
2023/07/05 00:47:08;;;;;;;9.65;4.47;;;14.50;99.90;;;;;;5074762;28;20718;-76
2023/07/05 00:49:37;;;;;;;16.42;4.72;;;14.50;99.90;;;;;;5059320;28;20072;-76
2023/07/05 00:52:09;;;;;;;9.13;4.88;;;14.70;99.90;;;;;;5066129;28;20041;-77
2023/07/05 00:54:41;;;;;;;10.82;5.00;;;14.70;99.90;;;;;;5052128;28;20398;-76
2023/07/05 00:57:37;;;;;;;14.18;4.75;;;;;;;;;;5065485;28;20786;-77
2023/07/05 01:00:07;;;;;;;9.23;4.65;;;14.80;99.90;;;;;;5052387;28;20094;-77
2023/07/05 01:02:34;;;;;;;12.20;5.43;;;;;;;;;;5056402;28;20064;-77
2023/07/05 01:05:01;;;;;;;13.70;6.07;;;14.80;99.90;;;;;;5049560;28;20127;-77
2023/07/05 01:07:27;;;;;;;10.95;5.95;;;;;;;;;;5061643;28;20075;-77
2023/07/05 01:09:55;;;;;;;14.52;5.70;;;;;;;;;;5063797;28;20487;-76
2023/07/05 01:12:24;;;;;;;13.73;5.88;;;;;;;;;;5047619;28;20094;-76
2023/07/05 01:15:11;;;;;;;13.30;6.20;;;15.00;99.90;;;;;;5068843;28;20048;-77
2023/07/05 01:17:44;;;;;;;11.27;5.53;;;14.80;99.90;;;;;;5049098;28;20056;-77
2023/07/05 01:20:32;;;;;;;12.88;6.43;;;14.90;99.90;;;;;;5029100;28;20524;-76
2023/07/05 01:23:30;;;;;;;13.85;6.15;;;14.60;99.90;;;;;;5061819;28;20118;-75
2023/07/05 01:26:18;;;;;;;10.15;6.95;;;14.70;99.90;;;;;;5053616;28;20056;-76
2023/07/05 01:29:08;;;;;;;15.50;7.80;;;14.60;99.90;;;;;;5069541;28;20071;-76
2023/07/05 01:31:58;;;;;;;12.77;6.38;;;14.70;99.90;;;;;;5057941;28;20049;-75
2023/07/05 01:34:34;;;;;;;14.70;6.78;;;14.60;99.90;;;;;;5055915;28;20075;-75
2023/07/05 01:37:00;;;;;;;15.23;7.18;;;;;;;;;;5069022;28;20040;-78
2023/07/05 01:39:26;;;;;;;17.00;7.15;;;;;;;;;;5058801;28;20044;-76
2023/07/05 01:41:52;;;;;;;12.98;6.63;;;;;;;;;;5057489;28;20040;-76
2023/07/05 01:44:18;;;;;;;14.93;7.82;;;;;;;;;;5069550;28;20072;-76
2023/07/05 01:47:05;;;;;;;10.98;7.25;;;14.40;99.90;;;;;;5068873;28;20090;-76
2023/07/05 01:50:03;;;;;;;16.55;7.55;;;14.60;99.90;;;;;;5061730;28;20052;-76
2023/07/05 01:53:00;;;;;;;12.02;7.25;;;14.50;99.90;;;;;;5065049;28;20457;-77
2023/07/05 01:55:33;;;;;;;13.40;7.78;;;14.40;99.90;;;;;;5068761;28;20044;-77
2023/07/05 01:58:10;;;;;;;15.38;8.63;;;14.50;99.90;;;;;;5055185;28;20044;-76
2023/07/05 02:00:38;;;;;;;12.73;7.90;;;14.50;99.90;;;;;;5049212;28;20477;-77
2023/07/05 02:03:09;;;;;;;15.25;9.00;;;14.50;99.90;;;;;;5067895;28;20045;-76
2023/07/05 02:05:35;;;;;;;17.75;7.97;;;;;;;;;;5046107;28;20477;-78
2023/07/05 02:08:02;;;;;;;18.95;10.15;;;14.60;99.90;;;;;;5075135;28;20051;-76
2023/07/05 02:10:29;;;;;;;23.23;9.15;;;14.70;99.90;;;;;;5068892;28;20482;-76
2023/07/05 02:12:56;;;;;;;15.07;8.65;;;14.50;99.90;;;;;;5068409;28;20051;-76
2023/07/05 02:15:22;;;;;;;16.48;9.55;;;14.50;99.90;;;;;;5055098;28;20040;-75
2023/07/05 02:17:48;;;;;;;15.48;9.68;;;;;;;;;;5066719;28;20070;-75
2023/07/05 02:20:14;;;;;;;13.93;9.23;;;;;;;;;;5062431;28;20141;-76
2023/07/05 02:22:40;;;;;;;18.23;9.15;;;;;;;;;;5062743;28;20047;-75
2023/07/05 02:25:06;;;;;;;16.65;10.02;;;;;;;;;;5068665;28;20090;-76
2023/07/05 02:27:32;;;;;;;15.85;9.95;;;14.60;99.90;;;;;;5068997;28;20055;-75
2023/07/05 02:29:58;;;;;;;15.77;10.07;;;;;;;;;;5050321;28;20044;-77
2023/07/05 02:32:24;;;;;;;16.80;10.23;;;;;;;;;;5053190;28;20135;-77
2023/07/05 02:34:52;;;;;;;21.98;11.13;;;;;;;;;;5050711;28;20546;-75
2023/07/05 02:37:18;;;;;;;16.92;10.65;;;;;;;;;;5051173;28;20134;-76
2023/07/05 02:39:44;;;;;;;17.98;11.05;;;;;;;;;;5055702;28;20525;-76
2023/07/05 02:42:10;;;;;;;17.33;11.40;;;14.80;99.90;;;;;;5056070;28;20048;-76
2023/07/05 02:44:36;;;;;;;16.08;10.57;;;;;;;;;;5045322;28;20079;-76
2023/07/05 02:47:02;;;;;;;20.10;12.32;;;;;;;;;;5068786;28;20045;-78
2023/07/05 02:49:28;;;;;;;21.85;12.13;;;;;;;;;;5047755;28;20573;-79
2023/07/05 02:51:54;;;;;;;18.55;11.55;;;14.90;99.90;;;;;;5056059;28;20048;-77
2023/07/05 02:54:20;;;;;;;19.85;12.73;;;;;;;;;;5069022;28;20072;-77
2023/07/05 02:56:46;;;;;;;24.23;12.13;;;;;;;;;;5044703;28;20044;-76
2023/07/05 02:59:12;;;;;;;19.88;10.57;;;;;;;;;;5068670;28;20040;-77
2023/07/05 03:01:38;;;;;;;19.50;11.05;;;;;;;;;;5043346;28;20055;-77
2023/07/05 03:04:04;;;;;;;21.95;13.23;;;;;;;;;;5039064;28;20427;-78
2023/07/05 03:06:30;;;;;;;19.05;12.02;;;15.00;99.90;;;;;;5060031;28;20386;-76
2023/07/05 03:08:56;;;;;;;21.13;12.45;;;15.00;99.90;;;;;;5053133;28;20044;-76
2023/07/05 03:11:21;;;;;;;22.05;13.20;;;;;;;;;;5066516;28;20052;-76
2023/07/05 03:13:47;;;;;;;21.85;12.98;;;;;;;;;;5065094;28;20049;-77
2023/07/05 03:16:13;;;;;;;18.73;12.93;;;14.80;99.90;;;;;;5067924;28;20032;-77
2023/07/05 03:18:39;;;;;;;21.73;12.52;;;;;;;;;;5060555;28;20040;-75
2023/07/05 03:21:05;;;;;;;20.23;13.57;;;;;;;;;;5067974;28;20032;-76
2023/07/05 03:23:31;;;;;;;26.83;12.32;;;14.80;99.90;;;;;;5062534;28;20045;-76
2023/07/05 03:25:58;;;;;;;20.85;12.38;;;;;;;;;;5027099;28;20045;-77
2023/07/05 03:28:25;;;;;;;24.23;12.82;;;15.20;99.90;;;;;;5067459;28;20070;-76
2023/07/05 03:30:56;;;;;;;20.02;13.55;;;;;;;;;;5050583;28;20040;-76
2023/07/05 03:33:22;;;;;;;20.23;13.18;;;;;;;;;;5038658;28;20053;-76
2023/07/05 03:35:59;;;;;;;20.65;13.10;;;15.10;99.90;;;;;;5038105;28;20076;-77
2023/07/05 03:38:26;;;;;;;17.67;12.05;;;;;;;;;;5066791;28;20072;-76
2023/07/05 03:40:58;;;;;;;17.20;11.10;;;15.30;99.90;;;;;;5067322;28;20056;-75
2023/07/05 03:43:25;;;;;;;17.67;11.48;;;15.30;99.90;;;;;;5053387;28;20166;-79
2023/07/05 03:45:51;;;;;;;21.58;13.30;;;;;;;;;;5064466;28;20040;-79
2023/07/05 03:48:17;;;;;;;18.33;13.48;;;;;;;;;;5054022;28;20557;-76
2023/07/05 03:50:43;;;;;;;16.35;12.15;;;;;;;;;;5066610;28;20067;-77
2023/07/05 03:53:10;;;;;;;19.08;12.25;;;;;;;;;;5067073;28;20154;-76
2023/07/05 03:55:36;;;;;;;18.55;11.85;;;;;;;;;;5049769;28;20048;-76
2023/07/05 03:58:02;;;;;;;21.13;11.18;;;;;;;;;;5035207;28;20037;-78
2023/07/05 04:00:28;;;;;;;16.45;11.13;;;;;;;;;;5066407;28;20036;-77
2023/07/05 04:02:54;;;;;;;14.05;10.77;;;;;;;;;;5066672;28;20044;-76
2023/07/05 04:05:20;;;;;;;21.27;12.27;;;;;;;;;;5049435;28;20410;-77
2023/07/05 04:07:47;;;;;;;14.73;11.05;;;;;;;;;;5039790;28;20040;-77
2023/07/05 04:10:13;;;;;;;16.73;10.30;;;;;;;;;;5047399;28;20143;-79
2023/07/05 04:12:39;;;;;;;24.52;12.52;;;;;;;;;;5066395;28;20150;-78
2023/07/05 04:15:05;;;;;;;15.65;10.55;;;15.10;99.90;;;;;;5047451;28;20059;-77
2023/07/05 04:17:31;;;;;;;15.80;9.60;;;;;;;;;;5042286;28;20119;-77
2023/07/05 04:19:56;;;;;;;15.07;8.50;;;15.20;99.90;;;;;;5054191;28;20036;-75
2023/07/05 04:22:22;;;;;;;12.85;7.75;;;;;;;;;;5066782;28;20477;-77
2023/07/05 04:24:48;;;;;;;10.13;6.90;;;;;;;;;;5031512;28;20047;-77
2023/07/05 04:27:15;;;;;;;10.90;6.43;;;15.30;99.90;;;;;;5044580;28;20053;-77
2023/07/05 04:29:41;;;;;;;8.95;5.85;;;;;;;;;;5066245;28;20054;-77
2023/07/05 04:32:07;;;;;;;12.07;5.82;;;15.20;99.90;;;;;;5049145;28;20440;-76
2023/07/05 04:34:33;;;;;;;8.60;5.55;;;;;;;;;;5066184;28;20047;-77
2023/07/05 04:36:59;;;;;;;8.05;5.60;;;;;;;;;;5063594;28;20032;-76
2023/07/05 04:39:25;;;;;;;7.78;4.78;;;;;;;;;;5065507;28;20043;-75
2023/07/05 04:41:51;;;;;;;6.93;4.13;;;;;;;;;;5054851;28;20144;-76
2023/07/05 04:44:17;;;;;;;6.95;3.80;;;;;;;;;;5050237;28;20048;-76
2023/07/05 04:46:43;;;;;;;6.50;4.00;;;;;;;;;;5061785;28;20055;-76
2023/07/05 04:49:09;;;;;;;7.55;3.95;;;15.00;99.90;;;;;;5051426;28;20746;-75
2023/07/05 04:51:34;;;;;;;8.05;3.70;;;;;;;;;;5066323;28;20079;-76
2023/07/05 04:54:01;;;;;;;6.25;3.88;;;;;;;;;;5063737;28;20032;-77
2023/07/05 04:56:26;;;;;;;8.13;4.18;;;;;;;;;;5065013;28;20437;-76
2023/07/05 04:58:52;;;;;;;6.43;3.78;;;;;;;;;;5036961;28;20123;-76
2023/07/05 05:01:19;;;;;;;7.47;4.43;;;;;;;;;;5062906;28;20040;-77
2023/07/05 05:03:45;;;;;;;9.57;4.78;;;;;;;;;;5065976;28;20048;-77
2023/07/05 05:06:11;;;;;;;8.15;4.75;;;;;;;;;;5041609;28;20106;-77
2023/07/05 05:08:37;;;;;;;6.03;4.25;;;;;;;;;;5046335;28;20090;-77
2023/07/05 05:11:04;;;;;;;8.70;4.93;;;;;;;;;;5060259;28;20105;-76
2023/07/05 05:13:31;;;;;;;7.40;4.97;;;;;;;;;;5059995;28;20048;-76
2023/07/05 05:15:57;;;;;;;8.07;5.32;;;;;;;;;;5065681;28;20032;-77
2023/07/05 05:18:24;;;;;;;6.97;5.03;;;;;;;;;;5048783;28;20127;-77
2023/07/05 05:20:50;;;;;;;6.55;4.22;;;;;;;;;;5049288;28;20502;-76
2023/07/05 05:23:16;;;;;;;7.13;4.32;;;;;;;;;;5052960;28;20543;-77
2023/07/05 05:25:42;;;;;;;7.72;5.10;;;;;;;;;;5059817;28;20045;-76
2023/07/05 05:28:09;;;;;;;6.93;4.90;;;;;;;;;;5059269;28;20083;-76
2023/07/05 05:30:35;;;;;;;5.20;4.28;;;14.40;99.90;;;;;;5055983;28;20041;-76
2023/07/05 05:33:01;;;;;;;5.70;3.75;;;;;;;;;;5065017;28;20047;-77
2023/07/05 05:35:27;;;;;;;8.57;4.22;;;14.40;99.90;;;;;;5060207;28;20045;-76
2023/07/05 05:37:53;;;;;;;6.57;4.78;;;;;;;;;;5051840;28;20044;-76
2023/07/05 05:40:19;;;;;;;7.78;3.55;;;;;;;;;;5036641;28;20068;-78
2023/07/05 05:42:45;;;;;;;7.10;4.45;;;;;;;;;;5065656;28;20046;-77
2023/07/05 05:45:12;;;;;;;7.55;4.57;;;;;;;;;;5065668;28;20496;-77
2023/07/05 05:47:38;;;;;;;9.48;3.95;;;;;;;;;;5071422;28;20521;-77
2023/07/05 05:50:04;;;;;;;7.53;4.03;;;;;;;;;;5074084;28;20146;-77
2023/07/05 05:52:30;;;;;;;6.05;3.92;;;;;;;;;;5072380;28;20052;-77
2023/07/05 05:54:56;;;;;;;5.75;3.85;;;;;;;;;;5072685;28;20048;-79
2023/07/05 05:57:22;;;;;;;5.10;3.42;;;;;;;;;;5072807;28;20105;-78
2023/07/05 05:59:48;;;;;;;5.55;3.58;;;;;;;;;;5055020;28;20051;-76
2023/07/05 06:02:14;;;;;;;5.35;3.78;;;;;;;;;;5055947;28;20053;-78
2023/07/05 06:04:40;;;;;;;5.22;3.78;;;;;;;;;;5069809;28;20086;-76
2023/07/05 06:07:06;;;;;;;4.82;3.50;;;;;;;;;;5074030;28;20035;-76
2023/07/05 06:09:37;;;;;;;6.43;3.40;;;14.60;99.90;;;;;;5061587;28;20086;-76
2023/07/05 06:12:03;;;;;;;7.40;3.90;;;14.60;99.90;;;;;;5063889;28;20078;-76
2023/07/05 06:14:29;;;;;;;8.98;3.60;;;;;;;;;;5068396;28;20494;-77
2023/07/05 06:16:55;;;;;;;5.43;2.80;;;;;;;;;;5068406;28;20529;-78
2023/07/05 06:19:21;;;;;;;7.10;3.83;;;;;;;;;;5053352;28;20083;-77
2023/07/05 06:21:47;;;;;;;5.55;2.70;;;;;;;;;;5047485;28;20051;-77
2023/07/05 06:24:13;;;;;;;8.98;3.15;;;;;;;;;;5055649;28;20084;-78
2023/07/05 06:26:39;;;;;;;7.38;3.58;;;;;;;;;;5072140;28;20040;-77
2023/07/05 06:29:05;;;;;;;5.03;3.30;;;;;;;;;;5057667;28;20882;-79
2023/07/05 06:31:33;;;;;;;4.80;2.67;;;15.20;99.90;;;;;;5068768;28;20049;-76
2023/07/05 06:34:00;;;;;;;4.82;2.80;;;15.10;99.90;;;;;;5070659;28;20048;-75
2023/07/05 06:36:26;;;;;;;5.00;3.13;;;;;;;;;;5068527;28;20037;-74
2023/07/05 06:38:52;;;;;;;4.22;2.63;;;;;;;;;;5059748;28;20076;-74
2023/07/05 06:41:18;;;;;;;5.07;2.83;;;;;;;;;;5052259;28;20076;-74
2023/07/05 06:43:44;;;;;;;8.82;3.08;;;15.10;99.90;;;;;;5042457;28;20044;-73
2023/07/05 06:46:10;;;;;;;10.25;3.20;;;;;;;;;;5052930;28;20037;-73
2023/07/05 06:48:36;;;;;;;6.50;3.35;;;;;;;;;;5055503;28;20616;-75
2023/07/05 06:51:02;;;;;;;5.65;3.35;;;;;;;;;;5062558;28;20052;-75
2023/07/05 06:53:28;;;;;;;4.43;2.50;;;;;;;;;;5064761;28;20041;-75
2023/07/05 06:55:54;;;;;;;5.72;4.07;;;;;;;;;;5056483;28;20451;-76
2023/07/05 06:58:20;;;;;;;7.68;3.15;;;;;;;;;;5046067;28;20076;-77
2023/07/05 07:00:47;;;;;;;7.28;2.65;;;15.20;99.90;;;;;;5057071;28;20131;-76
2023/07/05 07:03:13;;;;;;;4.40;2.75;;;;;;;;;;5068941;28;20052;-75
2023/07/05 07:05:39;;;;;;;5.72;2.65;;;;;;;;;;5047788;28;20041;-75
2023/07/05 07:08:05;;;;;;;4.15;2.15;;;;;;;;;;5049803;28;20048;-75
2023/07/05 07:10:34;;;;;;;10.20;2.65;;;15.10;99.90;;;;;;5042480;28;20287;-76
2023/07/05 07:12:59;;;;;;;5.45;1.88;;;15.30;99.90;;;;;;5059879;28;20052;-75
2023/07/05 07:15:25;;;;;;;4.28;1.90;;;;;;;;;;5061209;28;20040;-76
2023/07/05 07:17:51;;;;;;;3.10;1.73;;;;;;;;;;5058417;28;20040;-78
2023/07/05 07:20:19;;;;;;;5.18;2.20;;;;;;;;;;5073285;28;20414;-75
2023/07/05 07:22:45;;;;;;;4.75;2.28;;;;;;;;;;5071951;28;20052;-74
2023/07/05 07:25:11;;;;;;;5.93;2.67;;;;;;;;;;5048547;28;20055;-76
2023/07/05 07:27:37;;;;;;;9.18;2.78;;;;;;;;;;5075929;28;20489;-76
2023/07/05 07:30:03;;;;;;;3.17;1.67;;;;;;;;;;5056294;28;20102;-76
2023/07/05 07:32:28;;;;;;;4.38;1.65;;;14.00;99.90;;;;;;5070407;28;20049;-73
2023/07/05 07:34:55;;;;;;;3.22;1.27;;;;;;;;;;5049756;28;20438;-73
2023/07/05 07:37:21;;;;;;;2.60;1.33;;;;;;;;;;5055455;28;20147;-73
2023/07/05 07:39:48;;;;;;;2.65;1.10;;;;;;;;;;5065643;28;20037;-73
2023/07/05 07:42:14;;;;;;;2.83;1.23;;;;;;;;;;5053901;28;20052;-73
2023/07/05 07:44:40;;;;;;;4.35;1.25;;;;;;;;;;5043678;28;20070;-73
2023/07/05 07:47:06;;;;;;;2.95;0.90;;;;;;;;;;5079326;28;20174;-73
2023/07/05 07:49:33;;;;;;;5.03;1.27;;;;;;;;;;5047941;28;20039;-74
2023/07/05 07:51:59;;;;;;;7.13;1.33;;;;;;;;;;5070068;28;20040;-74
2023/07/05 07:54:31;;;;;;;1.70;1.05;;;;;;;;;;5066250;28;20098;-74
2023/07/05 07:56:57;;;;;;;2.75;1.00;;;;;;;;;;5060144;28;20048;-73
2023/07/05 07:59:24;;;;;;;1.75;1.20;;;;;;;;;;5057513;28;20049;-73
2023/07/05 08:01:50;;;;;;;2.15;1.27;;;;;;;;;;5041451;28;20062;-74
2023/07/05 08:04:17;;;;;;;1.13;0.80;;;;;;;;;;5058670;28;20044;-73
2023/07/05 08:06:44;;;;;;;1.23;0.90;;;;;;;;;;5061950;28;20102;-74
2023/07/05 08:09:13;;;;;;;5.50;1.10;;;;;;;;;;5039673;28;20079;-73
2023/07/05 08:11:39;;;;;;;2.10;1.17;;;;;;;;;;5065570;28;20436;-73
2023/07/05 08:14:05;;;;;;;4.65;1.20;;;;;;;;;;5065522;28;20041;-73
2023/07/05 08:16:31;;;;;;;1.80;0.90;;;;;;;;;;5051627;28;20102;-74
2023/07/05 08:18:58;;;;;;;1.73;1.00;;;;;;;;;;5067913;28;20036;-73
2023/07/05 08:21:24;;;;;;;2.83;1.30;;;;;;;;;;5058119;28;20145;-73
2023/07/05 08:23:50;;;;;;;3.05;0.95;;;;;;;;;;5067591;28;20078;-75
2023/07/05 08:26:16;;;;;;;3.60;1.02;;;;;;;;;;5036837;28;20040;-73
2023/07/05 08:28:42;;;;;;;4.63;1.27;;;;;;;;;;5067702;28;20448;-73
2023/07/05 08:31:09;;;;;;;5.18;1.17;;;;;;;;;;5055192;28;20746;-73
2023/07/05 08:33:36;;;;;;;3.63;1.33;;;12.10;99.90;;;;;;5055386;28;20040;-75
2023/07/05 08:36:07;;;;;;;3.28;1.23;;;;;;;;;;5059375;28;20036;-75
2023/07/05 08:38:33;;;;;;;7.78;1.80;;;;;;;;;;5050538;28;20529;-72
2023/07/05 08:41:05;;;;;;;7.75;1.52;;;;;;;;;;5053027;28;20040;-75
2023/07/05 08:43:42;;;;;;;10.05;2.88;;;;;;;;;;5060305;28;20056;-75
2023/07/05 08:46:12;;;;;;;5.82;1.73;;;;;;;;;;5059235;28;20048;-75
2023/07/05 08:48:38;;;;;;;5.85;1.63;;;;;;;;;;5056545;28;20048;-75
2023/07/05 08:51:04;;;;;;;9.90;2.42;;;;;;;;;;5046802;28;20044;-75
2023/07/05 08:53:36;;;;;;;7.75;2.22;;;12.40;99.90;;;;;;5059897;28;20037;-74
2023/07/05 08:56:07;;;;;;;11.90;2.72;;;;;;;;;;5064610;28;20055;-74
2023/07/05 08:58:33;;;;;;;9.13;3.17;;;;;;;;;;5061010;28;20048;-74
2023/07/05 09:01:01;;;;;;;13.90;2.95;;;;;;;;;;5061552;28;20036;-74
2023/07/05 09:03:31;;;;;;;9.98;2.38;;;;;;;;;;5063748;28;20037;-74
2023/07/05 09:06:16;;;;;;;10.18;2.80;;;;;;;;;;5057580;28;20067;-74
2023/07/05 09:08:42;;;;;;;7.72;2.65;;;;;;;;;;5061167;28;20037;-74
2023/07/05 09:11:25;;;;;;;9.98;2.20;;;;;;;;;;5051374;28;20056;-74
2023/07/05 09:13:54;;;;;;;8.77;1.85;;;;;;;;;;5062458;28;20439;-74
2023/07/05 09:16:20;;;;;;;6.75;1.35;;;;;;;;;;5063142;28;20032;-73
2023/07/05 09:18:51;;;;;;;6.30;0.93;;;13.60;99.90;;;;;;5061767;28;20052;-74
2023/07/05 09:21:17;;;;;;;4.72;0.98;;;;;;;;;;5044460;28;20044;-74
2023/07/05 09:23:53;;;;;;;8.30;1.13;;;;;;;;;;5053878;28;20401;-74
2023/07/05 09:26:38;;;;;;;6.93;0.70;;;14.10;99.90;;;;;;5050782;28;20063;-74
2023/07/05 09:29:29;;;;;;;8.82;0.85;;;13.90;99.90;;;;;;5055022;28;20067;-74
2023/07/05 09:31:55;;;;;;;11.23;0.88;;;;;;;;;;5054872;28;20769;-74
2023/07/05 09:34:29;;;;;;;4.88;0.90;;;;;;;;;;5051745;28;20139;-74
2023/07/05 09:36:55;;;;;;;7.85;1.00;;;;;;;;;;5058163;28;20052;-74
2023/07/05 09:39:47;;;;;;;3.45;1.00;;;14.70;99.90;;;;;;5067992;28;20041;-74
2023/07/05 09:42:21;;;;;;;6.00;0.93;;;14.60;99.90;;;;;;5054369;28;20489;-74
2023/07/05 09:44:47;;;;;;;7.68;1.13;;;;;;;;;;5067244;28;20037;-74
2023/07/05 09:47:13;;;;;;;9.68;1.02;;;;;;;;;;5069066;28;20129;-74
2023/07/05 09:49:39;;;;;;;11.70;1.42;;;;;;;;;;5054430;28;20072;-74
2023/07/05 09:52:13;;;;;;;5.85;2.00;;;15.00;99.90;;;;;;5059820;28;20718;-74
2023/07/05 09:54:40;;;;;;;8.23;1.00;;;14.90;99.90;;;;;;5070320;28;20040;-74
2023/07/05 09:57:09;;;;;;;3.83;1.40;;;15.10;99.90;;;;;;5067640;28;20044;-74
2023/07/05 09:59:36;;;;;;;4.47;1.27;;;;;;;;;;5068531;28;20044;-74
2023/07/05 10:02:16;;;;;;;6.07;1.63;;;14.90;99.90;;;;;;5065665;28;20036;-74
2023/07/05 10:04:50;;;;;;;5.10;1.30;;;15.00;99.90;;;;;;5067652;28;20696;-74
2023/07/05 10:07:22;;;;;;;2.83;0.70;;;15.00;99.90;;;;;;5057562;28;20047;-74
2023/07/05 10:10:09;;;;;;;4.70;0.82;;;14.80;99.90;;;;;;5051322;28;20047;-74
2023/07/05 10:12:37;;;;;;;5.03;0.95;;;15.00;99.90;;;;;;5067986;28;20426;-74
2023/07/05 10:15:20;;;;;;;8.18;1.20;;;15.10;99.90;;;;;;5053664;28;20090;-74
2023/07/05 10:17:46;;;;;;;6.93;1.10;;;14.90;99.90;;;;;;5051028;28;20059;-74
2023/07/05 10:20:35;;;;;;;9.98;1.30;;;15.00;99.90;;;;;;5068881;28;20032;-74
2023/07/05 10:23:04;;;;;;;5.75;1.00;;;15.00;99.90;;;;;;5063055;28;20041;-74
2023/07/05 10:25:33;;;;;;;6.90;1.85;;;14.90;99.90;;;;;;5059117;28;20816;-74
2023/07/05 10:28:03;;;;;;;7.72;1.23;;;14.60;99.90;;;;;;5048652;28;20214;-74
2023/07/05 10:30:29;;;;;;;3.60;1.10;;;;;;;;;;5043792;28;20603;-74
2023/07/05 10:33:31;;;;;;;3.72;1.20;;;14.70;99.90;;;;;;5061703;28;20088;-73
2023/07/05 10:36:02;;;;;;;6.65;1.60;;;14.90;99.90;;;;;;5003839;28;20060;-73
2023/07/05 10:38:30;;;;;;;13.15;2.08;;;14.90;99.90;;;;;;5062842;28;20041;-74
2023/07/05 10:41:36;;;;;;;12.43;1.65;;;15.20;99.90;;;;;;5054236;28;20045;-74
2023/07/05 10:44:05;;;;;;;11.77;2.00;;;;;;;;;;5067432;28;20037;-74
2023/07/05 10:46:32;;;;;;;6.32;1.42;;;15.10;99.90;;;;;;5068160;28;20588;-74
2023/07/05 10:48:58;;;;;;;9.80;2.03;;;15.20;99.90;;;;;;5052660;28;20047;-75
2023/07/05 10:51:27;;;;;;;5.90;1.35;;;14.90;99.90;;;;;;5055431;28;20055;-73
2023/07/05 10:54:15;;;;;;;17.98;3.50;;;15.10;99.90;;;;;;5065123;28;20036;-74
2023/07/05 10:56:43;;;;;;;11.63;2.75;;;15.40;99.90;;;;;;5060237;28;20079;-74
2023/07/05 10:59:35;;;;;;;12.48;2.20;;;15.30;99.90;;;;;;5065668;28;20044;-74
2023/07/05 11:02:27;;;;;;;9.48;2.42;;;15.50;99.90;;;;;;5051401;28;20131;-74
2023/07/05 11:04:53;;;;;;;11.63;2.35;;;15.40;99.90;;;;;;5059184;28;20048;-74
2023/07/05 11:07:21;;;;;;;12.02;2.67;;;15.50;99.90;;;;;;5061804;28;20055;-73
2023/07/05 11:09:47;;;;;;;9.85;2.58;;;15.90;99.90;;;;;;5073244;28;20052;-73
2023/07/05 11:12:15;;;;;;;13.05;2.10;;;15.30;99.90;;;;;;5068389;28;20071;-73
2023/07/05 11:14:41;;;;;;;6.70;1.40;;;;;;;;;;5067911;28;20036;-74
2023/07/05 11:17:14;;;;;;;3.97;1.02;;;;;;;;;;5057242;28;20371;-74
2023/07/05 11:19:40;;;;;;;6.65;1.75;;;;;;;;;;5059238;28;20040;-74
2023/07/05 11:22:06;;;;;;;6.65;1.50;;;14.80;99.90;;;;;;5050892;28;20040;-74
2023/07/05 11:24:32;;;;;;;4.35;1.30;;;;;;;;;;5066068;28;20044;-73
2023/07/05 11:27:00;;;;;;;6.50;1.50;;;14.30;99.90;;;;;;5059129;28;20040;-74
2023/07/05 11:29:26;;;;;;;5.07;1.33;;;;;;;;;;5054394;28;20052;-76
2023/07/05 11:31:52;;;;;;;2.40;1.02;;;;;;;;;;5053861;28;20060;-78
2023/07/05 11:34:20;;;;;;;4.40;1.27;;;14.10;99.90;;;;;;5058636;28;20047;-78
2023/07/05 11:37:09;;;;;;;7.80;1.70;;;13.90;99.90;;;;;;5055078;28;20040;-74
2023/07/05 11:39:37;;;;;;;8.88;1.70;;;13.90;99.90;;;;;;5045920;28;20055;-74
2023/07/05 11:42:15;;;;;;;5.60;2.10;;;13.80;99.90;;;;;;5057955;28;20048;-75
2023/07/05 11:44:45;;;;;;;4.55;1.80;;;;;;;;;;5050120;28;20040;-75
2023/07/05 11:47:31;;;;;;;7.63;2.08;;;13.40;99.90;;;;;;5053522;28;20055;-75
2023/07/05 11:50:02;;;;;;;6.93;1.70;;;;;;;;;;5048981;28;20604;-74
2023/07/05 11:52:29;;;;;;;7.03;2.92;;;;;;;;;;5065912;28;20055;-74
2023/07/05 11:54:58;;;;;;;4.20;1.70;;;;;;;;;;5048602;28;20173;-75
2023/07/05 11:57:26;;;;;;;5.72;1.67;;;13.40;99.90;;;;;;5060260;28;20040;-74
2023/07/05 11:59:55;;;;;;;8.95;2.15;;;;;;;;;;5040955;28;20411;-74
2023/07/05 12:02:48;;;;;;;11.68;2.30;;;13.40;99.90;;;;;;5042452;28;20167;-71
2023/07/05 12:05:17;;;;;;;11.25;2.40;;;;;;;;;;5040633;28;20433;-73
2023/07/05 12:07:44;;;;;;;8.10;2.30;;;13.30;99.90;;;;;;5064446;28;20105;-72
2023/07/05 12:10:15;;;;;;;9.98;2.53;;;;;;;;;;5066840;28;20513;-75
2023/07/05 12:12:41;;;;;;;8.90;2.03;;;;;;;;;;5065587;28;20049;-74
2023/07/05 12:15:10;;;;;;;7.05;2.58;;;13.50;99.90;;;;;;5065953;28;20071;-74
2023/07/05 12:17:38;;;;;;;9.60;1.70;;;13.50;99.90;;;;;;5062150;28;20821;-74
2023/07/05 12:20:17;;;;;;;16.35;2.53;;;13.50;99.90;;;;;;5052465;28;20040;-75
2023/07/05 12:22:43;;;;;;;5.75;1.95;;;;;;;;;;5054823;28;20079;-75
2023/07/05 12:25:10;;;;;;;8.27;2.00;;;13.40;99.90;;;;;;5054162;28;20131;-74
2023/07/05 12:27:36;;;;;;;11.07;2.63;;;;;;;;;;5060515;28;20114;-75
2023/07/05 12:30:06;;;;;;;12.30;2.60;;;13.40;99.90;;;;;;5057606;28;20504;-74
2023/07/05 12:32:32;;;;;;;9.05;2.22;;;;;;;;;;5064948;28;20448;-74
2023/07/05 12:35:17;;;;;;;15.32;2.97;;;;;;;;;;5053888;28;20044;-73
2023/07/05 12:37:47;;;;;;;9.50;2.95;;;13.60;99.90;;;;;;5067844;28;20552;-74
2023/07/05 12:40:17;;;;;;;11.50;2.88;;;;;;;;;;5053935;28;21552;-73
2023/07/05 12:42:52;;;;;;;14.30;3.03;;;;;;;;;;5062737;28;20748;-74
2023/07/05 12:45:26;;;;;;;13.98;2.50;;;;;;;;;;5068499;28;20040;-75
2023/07/05 12:47:53;;;;;;;11.25;3.03;;;;;;;;;;5068267;28;20050;-74
2023/07/05 12:50:23;;;;;;;10.95;2.58;;;;;;;;;;5060617;28;20052;-74
2023/07/05 12:53:01;;;;;;;9.63;2.47;;;;;;;;;;5053751;28;20052;-74
2023/07/05 12:55:48;;;;;;;10.00;2.47;;;13.60;99.90;;;;;;5058997;28;20730;-74
2023/07/05 12:58:14;;;;;;;10.82;2.30;;;;;;;;;;5066720;28;20505;-74
2023/07/05 13:00:49;;;;;;;10.95;2.28;;;;;;;;;;5071339;28;20765;-74
2023/07/05 13:03:15;;;;;;;11.98;2.75;;;;;;;;;;5071146;28;20114;-74
2023/07/05 13:05:41;;;;;;;10.88;2.55;;;13.70;99.90;;;;;;5057460;28;20040;-75
2023/07/05 13:08:08;;;;;;;12.98;2.50;;;;;;;;;;5071482;28;20101;-74
2023/07/05 13:10:38;;;;;;;20.85;3.42;;;13.60;99.90;;;;;;5055917;28;20048;-74
2023/07/05 13:13:31;;;;;;;10.70;2.67;;;13.70;99.90;;;;;;5057930;28;20070;-74
2023/07/05 13:16:16;;;;;;;12.98;2.65;;;;;;;;;;5055282;28;20055;-74
2023/07/05 13:18:54;;;;;;;17.48;4.28;;;;;;;;;;5076093;28;20115;-73
2023/07/05 13:21:20;;;;;;;18.65;3.83;;;;;;;;;;5069185;28;20040;-74
2023/07/05 13:23:47;;;;;;;10.60;3.33;;;;;;;;;;5066055;28;20474;-75
2023/07/05 13:26:30;;;;;;;13.48;3.47;;;13.80;99.90;;;;;;5061496;28;20048;-74
2023/07/05 13:29:02;;;;;;;8.57;3.45;;;;;;;;;;5056098;28;20044;-73
2023/07/05 13:31:28;;;;;;;12.23;3.47;;;;;;;;;;5068193;28;20123;-73
2023/07/05 13:33:58;;;;;;;9.95;3.42;;;13.80;99.90;;;;;;5069640;28;20052;-74
2023/07/05 13:36:25;;;;;;;10.48;3.00;;;13.80;99.90;;;;;;5064009;28;20079;-73
2023/07/05 13:38:51;;;;;;;8.98;2.40;;;13.90;99.90;;;;;;5073802;28;20036;-73
2023/07/05 13:41:30;;;;;;;7.45;3.20;;;13.80;99.90;;;;;;5055477;28;20089;-73
2023/07/05 13:43:56;;;;;;;11.30;2.97;;;;;;;;;;5069544;28;20074;-74
2023/07/05 13:46:22;;;;;;;10.07;3.35;;;13.90;99.90;;;;;;5066385;28;20440;-73
2023/07/05 13:48:49;;;;;;;15.18;3.30;;;13.90;99.90;;;;;;5066399;28;20036;-72
2023/07/05 13:51:33;;;;;;;7.32;2.72;;;;;;;;;;5071472;28;20072;-73
2023/07/05 13:54:00;;;;;;;10.45;2.78;;;13.90;99.90;;;;;;5060906;28;20044;-73
2023/07/05 13:56:26;;;;;;;14.90;3.78;;;13.90;99.90;;;;;;5069888;28;20079;-72
2023/07/05 13:58:53;;;;;;;11.82;3.58;;;13.90;99.90;;;;;;5055535;28;20068;-73
2023/07/05 14:01:20;;;;;;;10.10;3.22;;;13.90;99.90;;;;;;5065004;28;20036;-73